TimeCST,TemperatureF,Dew PointF,Humidity,Sea Level PressureIn,VisibilityMPH,Wind Direction,Wind SpeedMPH,Gust SpeedMPH,PrecipitationIn,Events,Conditions,WindDirDegrees,DateUTC
6:00 AM,75,72,89,29.82,,East,9.2,,,Rain,Rain,90,2013-09-22 12:00:00
6:00 AM,75.2,73.4,94,29.81,0.6,East,9.2,-,N/A,Rain,Rain,90,2013-09-22 12:00:00
6:19 AM,73.4,71.6,94,29.81,3.1,ENE,9.2,-,N/A,Rain-Thunderstorm,Light Thunderstorms and Rain,70,2013-09-22 12:19:00
7:00 AM,73.4,71.6,94,29.83,4.3,Calm,Calm,-,N/A,Rain,Rain,0,2013-09-22 13:00:00
8:00 AM,75.2,71.6,89,29.86,6.2,NNE,6.9,-,N/A,,Drizzle,20,2013-09-22 14:00:00
9:00 AM,76,73,86,29.88,9,NE,4.6,,,Rain,Rain,50,2013-09-22 15:00:00
9:00 AM,75.2,73.4,94,29.87,6.2,NE,4.6,-,N/A,Rain,Rain,50,2013-09-22 15:00:00
10:00 AM,77.0,73.4,89,29.91,5.6,ESE,5.8,-,N/A,Rain,Light Rain,120,2013-09-22 16:00:00
11:00 AM,77.0,73.4,89,29.90,5.6,ESE,5.8,-,N/A,Rain,Light Rain,120,2013-09-22 17:00:00
12:00 PM,75,72,89,29.86,6,ESE,9.2,,,Rain,Rain,120,2013-09-22 18:00:00
12:00 PM,75.2,71.6,89,29.85,5.6,ESE,9.2,-,N/A,Rain,Light Rain,120,2013-09-22 18:00:00
1:00 PM,75.2,71.6,89,29.80,6.2,East,8.1,-,N/A,,Mostly Cloudy,90,2013-09-22 19:00:00
2:00 PM,77.0,71.6,83,29.74,6.2,East,6.9,-,N/A,,Mostly Cloudy,100,2013-09-22 20:00:00
3:00 PM,77,72,79,29.75,12,South,6.9,,,,Overcast,190,2013-09-22 21:00:00
3:00 PM,77.0,71.6,83,29.74,6.2,South,6.9,-,N/A,,Mostly Cloudy,190,2013-09-22 21:00:00
4:00 PM,77.0,71.6,83,29.76,6.2,WSW,9.2,-,N/A,,Mostly Cloudy,240,2013-09-22 22:00:00
5:00 PM,77.0,71.6,83,29.79,6.2,West,5.8,-,N/A,,Mostly Cloudy,260,2013-09-22 23:00:00
6:00 PM,77,72,81,29.83,12,SSE,3.5,,,,Overcast,160,2013-09-23 00:00:00
6:00 PM,77.0,71.6,83,29.83,6.2,SSE,3.5,-,N/A,,Mostly Cloudy,160,2013-09-23 00:00:00
7:00 PM,77.0,73.4,89,29.85,6.2,East,3.5,-,N/A,,Mostly Cloudy,80,2013-09-23 01:00:00
8:00 PM,75.2,71.6,89,29.86,6.2,NE,3.5,-,N/A,,Mostly Cloudy,50,2013-09-23 02:00:00